Latest Weather Observations for Rabbit Flat

IDD60801

Issued at 10:31 am CST Sunday 24 September 2017 (issued every 30 minutes, with the page automatically refreshed every 10 minutes)

About weather observations | Map of weather stations | Latest weather observations for NT | Other Formats
Station Details ID: 015666 Name: RABBIT FLAT Lat: -20.18 Lon: 130.01 Height: 340.0 m
Data from the previous 72 hours. | See also: Recent months at Rabbit Flat
Date/Time
CST
Temp
°C
App
Temp
°C
Dew
Point
°C
Rel
Hum
%
Delta-T
°C
Wind Press
QNH
hPa
Press
MSL
hPa
Rain since
9am
mm
Dir  Spd
km/h
Gust
km/h
Spd
kts
Gust
kts
24/10:30am 31.4 27.1 -1.4 12 15.7 S 11 19 6 10 1012.5 - 0.0
24/10:00am 30.7 25.8 -0.8 13 15.2 S 15 20 8 11 1012.4 - 0.0
24/09:30am 29.3 23.8 -1.9 13 14.6 SSW 17 24 9 13 1012.5 - 0.0
24/09:00am 27.7 23.8 -1.3 15 13.5 SW 9 15 5 8 1012.6 1010.9 0.0
24/08:30am 24.5 21.8 2.6 24 10.7 WNW 6 11 3 6 1012.4 - 0.0
24/08:00am 20.3 18.7 2.2 30 8.5 CALM 0 4 0 2 1012.1 - 0.0
24/07:30am 17.7 14.8 1.7 34 7.3 NNE 6 9 3 5 1011.8 - 0.0
24/07:00am 16.1 13.4 0.3 34 6.9 ENE 4 11 2 6 1011.6 - 0.0
24/06:30am 16.8 14.4 0.0 32 7.4 NNE 2 6 1 3 1011.5 - 0.0
24/06:00am 18.2 15.1 0.4 30 8.0 NE 6 9 3 5 1011.3 1009.6 0.0
24/05:30am 19.6 16.5 0.1 27 8.8 ESE 6 9 3 5 1011.0 - 0.0
24/05:00am 21.4 18.7 0.6 25 9.6 ENE 4 9 2 5 1010.9 - 0.0
24/04:30am 20.9 17.3 0.7 26 9.3 NE 9 15 5 8 1010.6 - 0.0
24/04:00am 20.4 16.4 -2.0 22 9.7 ENE 9 11 5 6 1010.4 - 0.0
24/03:30am 25.2 20.1 -1.6 17 12.2 W 15 20 8 11 1010.2 - 0.0
24/03:00am 25.2 19.4 -1.6 17 12.2 WSW 19 24 10 13 1010.3 1008.5 0.0
24/02:30am 23.8 19.3 -0.5 20 11.2 W 13 17 7 9 1010.5 - 0.0
24/02:00am 23.3 18.4 -0.2 21 10.8 WSW 15 17 8 9 1010.7 - 0.0
24/01:30am 22.1 17.6 0.0 23 10.1 W 13 15 7 8 1011.0 - 0.0
24/01:00am 19.5 15.4 0.0 27 8.7 W 11 11 6 6 1011.2 - 0.0
24/12:30am 20.0 15.9 -0.1 26 9.0 W 11 13 6 7 1011.5 - 0.0
24/12:00am 21.0 16.5 -0.3 24 9.6 W 13 15 7 8 1011.7 1010.0 0.0
 
Date/Time
CST
Temp
°C
App
Temp
°C
Dew
Point
°C
Rel
Hum
%
Delta-T
°C
Wind Press
QNH
hPa
Press
MSL
hPa
Rain since
9am
mm
Dir  Spd
km/h
Gust
km/h
Spd
kts
Gust
kts
23/11:30pm 21.3 17.1 -0.6 23 9.8 WNW 11 13 6 7 1011.9 - 0.0
23/11:00pm 22.4 18.3 -0.3 22 10.4 W 11 13 6 7 1012.0 - 0.0
23/10:30pm 22.5 18.0 -0.3 22 10.4 W 13 15 7 8 1012.2 - 0.0
23/10:00pm 23.3 19.5 -0.9 20 11.0 W 9 11 5 6 1012.2 - 0.0
23/09:30pm 24.5 20.3 -0.6 19 11.6 W 11 15 6 8 1012.0 - 0.0
23/09:00pm 25.2 20.9 -1.6 17 12.2 WNW 11 11 6 6 1011.6 1009.9 0.0
23/08:30pm 26.4 22.5 -1.4 16 12.8 W 9 11 5 6 1011.2 - 0.0
23/08:00pm 27.3 23.0 -1.6 15 13.4 W 11 11 6 6 1010.9 - 0.0
23/07:30pm 28.7 24.7 -2.4 13 14.3 WNW 9 11 5 6 1010.4 - 0.0
23/07:00pm 30.8 26.8 -1.9 12 15.4 WNW 9 13 5 7 1010.1 - 0.0
23/06:30pm 33.8 29.5 -2.0 10 17.2 WNW 11 17 6 9 1009.8 - 0.0
23/06:00pm 35.6 30.1 -2.1 9 18.4 WNW 17 24 9 13 1009.4 1007.7 0.0
23/05:30pm 36.7 30.7 -1.3 9 18.9 WNW 20 32 11 17 1009.3 - 0.0
23/05:00pm 37.1 31.7 -1.0 9 19.0 WNW 17 26 9 14 1009.1 - 0.0
23/04:30pm 37.2 31.9 -0.9 9 19.1 WNW 17 30 9 16 1009.2 - 0.0
23/04:00pm 36.7 30.4 -1.3 9 18.9 WNW 22 33 12 18 1009.3 - 0.0
23/03:30pm 37.3 31.6 -0.9 9 19.2 W 19 32 10 17 1009.4 - 0.0
23/03:00pm 37.6 32.3 -0.6 9 19.3 W 17 35 9 19 1009.8 1008.0 0.0
23/02:30pm 37.2 31.5 -0.9 9 19.1 NW 19 26 10 14 1010.5 - 0.0
23/02:00pm 36.2 32.7 -1.7 9 18.6 WNW 7 13 4 7 1011.0 - 0.0
23/01:30pm 35.5 30.7 -2.2 9 18.3 W 13 24 7 13 1011.6 - 0.0
23/01:00pm 34.7 30.6 -2.8 9 17.9 SSW 9 20 5 11 1012.0 - 0.0
23/12:30pm 34.3 28.7 -3.1 9 17.7 SSW 17 26 9 14 1012.5 - 0.0
23/12:00pm 34.1 28.5 -3.2 9 17.7 WSW 17 26 9 14 1013.0 1011.2 0.0
23/11:30am 33.8 27.9 -2.0 10 17.2 SSW 19 26 10 14 1013.3 - 0.0
23/11:00am 32.9 27.3 -2.7 10 16.8 WSW 17 28 9 15 1013.6 - 0.0
23/10:30am 32.1 27.0 -2.0 11 16.2 WSW 15 22 8 12 1013.9 - 0.0
23/10:00am 31.4 25.6 -1.4 12 15.7 WSW 19 28 10 15 1014.1 - 0.0
23/09:30am 29.6 25.4 -0.7 14 14.5 W 11 17 6 9 1014.3 - 0.0
23/09:00am 26.1 22.0 0.0 18 12.3 W 11 17 6 9 1014.2 1012.5 0.0
23/08:30am 22.4 18.4 0.3 23 10.2 W 11 13 6 7 1013.9 - 0.0
23/08:00am 19.5 16.0 1.0 29 8.5 W 9 11 5 6 1013.6 - 0.0
23/07:30am 16.4 12.8 0.5 34 7.0 WNW 9 11 5 6 1013.0 - 0.0
23/07:00am 15.0 11.4 0.8 38 6.2 W 9 11 5 6 1012.6 - 0.0
23/06:30am 14.7 11.5 -0.6 35 6.5 NNW 6 7 3 4 1012.5 - 0.0
23/06:00am 15.3 12.5 -0.4 34 6.7 WSW 4 7 2 4 1012.3 1010.6 0.0
23/05:30am 15.8 13.7 -0.8 32 7.1 CALM 0 0 0 0 1011.9 - 0.0
23/05:00am 16.7 13.6 -0.1 32 7.3 E 6 9 3 5 1011.4 - 0.0
23/04:30am 16.7 13.0 -0.1 32 7.3 SSE 9 15 5 8 1011.3 - 0.0
23/04:00am 16.7 13.9 -0.5 31 7.4 S 4 7 2 4 1011.1 - 0.0
23/03:30am 16.2 13.9 -2.3 28 7.7 CALM 0 0 0 0 1011.3 - 0.0
23/03:00am 16.7 14.5 -1.9 28 7.8 CALM 0 0 0 0 1011.3 1009.6 0.0
23/02:30am 17.7 14.4 -1.5 27 8.2 NE 6 7 3 4 1011.3 - 0.0
23/02:00am 18.2 14.9 -1.6 26 8.5 NNW 6 7 3 4 1011.4 - 0.0
23/01:30am 19.1 15.8 -1.4 25 8.9 WNW 6 7 3 4 1011.6 - 0.0
23/01:00am 19.3 15.7 -2.3 23 9.2 NNW 7 9 4 5 1011.9 - 0.0
23/12:30am 20.9 17.2 -2.9 20 10.2 N 7 9 4 5 1012.0 - 0.0
23/12:00am 22.0 17.9 -2.7 19 10.7 WNW 9 11 5 6 1012.1 1010.4 0.0
 
Date/Time
CST
Temp
°C
App
Temp
°C
Dew
Point
°C
Rel
Hum
%
Delta-T
°C
Wind Press
QNH
hPa
Press
MSL
hPa
Rain since
9am
mm
Dir  Spd
km/h
Gust
km/h
Spd
kts
Gust
kts
22/11:30pm 22.8 19.1 -2.7 18 11.1 WNW 7 9 4 5 1012.1 - 0.0
22/11:00pm 26.5 21.6 -3.1 14 13.2 N 13 15 7 8 1012.1 - 0.0
22/10:30pm 26.0 20.8 -2.6 15 12.9 NNW 15 17 8 9 1012.2 - 0.0
22/10:00pm 24.5 19.4 -2.1 17 11.9 WNW 15 19 8 10 1012.2 - 0.0
22/09:30pm 25.3 20.8 -3.2 15 12.6 N 11 15 6 8 1011.9 - 0.0
22/09:00pm 26.9 22.1 -2.8 14 13.4 NNE 13 15 7 8 1011.7 1010.0 0.0
22/08:30pm 28.2 23.4 -2.8 13 14.1 NNE 13 17 7 9 1011.3 - 0.0
22/08:00pm 28.2 23.4 -2.8 13 14.1 N 13 15 7 8 1011.1 - 0.0
22/07:30pm 29.2 24.7 -3.1 12 14.8 NNE 11 15 6 8 1010.7 - 0.0
22/07:00pm 29.9 25.7 -3.7 11 15.3 NNE 9 11 5 6 1010.5 - 0.0
22/06:30pm 32.8 28.6 -4.2 9 17.1 NNE 9 11 5 6 1010.3 - 0.0
22/06:00pm 34.9 30.3 -4.2 8 18.3 NNE 11 13 6 7 1010.0 1008.2 0.0
22/05:30pm 36.0 30.5 -5.2 7 19.1 NNE 15 20 8 11 1009.9 - 0.0
22/05:00pm 36.7 31.3 -4.7 7 19.5 N 15 20 8 11 1009.9 - 0.0
22/04:30pm 36.9 31.1 -4.5 7 19.6 N 17 22 9 12 1010.0 - 0.0
22/04:00pm 37.1 31.3 -4.4 7 19.7 N 17 28 9 15 1010.1 - 0.0
22/03:30pm 37.3 31.5 -4.2 7 19.8 N 17 30 9 16 1010.3 - 0.0
22/03:00pm 37.2 30.9 -4.3 7 19.7 N 20 30 11 16 1010.4 1008.6 0.0
22/02:30pm 37.6 31.9 -4.0 7 19.9 NW 17 24 9 13 1010.7 - 0.0
22/02:00pm 37.5 32.3 -6.1 6 20.2 N 13 22 7 12 1011.1 - 0.0
22/01:30pm 37.5 31.6 -6.1 6 20.2 N 17 28 9 15 1011.9 - 0.0
22/01:00pm 37.0 32.0 -4.4 7 19.6 NNE 13 26 7 14 1012.3 - 0.0
22/12:30pm 37.1 30.4 -4.4 7 19.7 NW 22 32 12 17 1012.9 - 0.0
22/12:00pm 36.6 30.4 -3.0 8 19.1 N 20 33 11 18 1013.4 1011.6 0.0
22/11:30am 36.3 30.3 -3.2 8 19.0 NW 19 26 10 14 1013.7 - 0.0
22/11:00am 35.8 30.7 -2.0 9 18.4 NNW 15 26 8 14 1014.0 - 0.0
22/10:30am 34.3 29.4 -0.4 11 17.2 N 15 24 8 13 1014.2 - 0.0
22/10:00am 32.7 28.2 -0.4 12 16.2 N 13 19 7 10 1014.5 - 0.0
22/09:30am 29.4 25.6 -0.9 14 14.4 N 9 11 5 6 1014.6 - 0.0
22/09:00am 26.1 22.6 -2.5 15 12.9 N 6 11 3 6 1014.8 1013.1 0.0
22/08:30am 23.3 21.2 -0.9 20 11.0 CALM 0 0 0 0 1014.6 - 0.0
22/08:00am 18.7 16.5 -1.2 26 8.6 CALM 0 2 0 1 1014.4 - 0.0
22/07:30am 14.8 11.3 -1.7 32 6.8 NNE 7 9 4 5 1014.1 - 0.0
22/07:00am 12.2 8.6 -3.6 33 6.1 ENE 6 7 3 4 1013.9 - 0.0
22/06:30am 12.5 10.0 -3.7 32 6.3 CALM 0 6 0 3 1013.7 - 0.0
22/06:00am 12.5 10.0 -4.1 31 6.4 CALM 0 0 0 0 1013.4 1011.6 0.0
22/05:30am 12.9 9.2 -4.2 30 6.6 WNW 6 7 3 4 1013.0 - 0.0
22/05:00am 13.8 10.0 -3.5 30 6.8 WNW 7 7 4 4 1012.8 - 0.0
22/04:30am 13.0 9.1 -4.6 29 6.7 W 7 9 4 5 1012.2 - 0.0
22/04:00am 13.6 9.9 -4.1 29 6.9 NW 6 9 3 5 1012.0 - 0.0
22/03:30am 13.7 9.8 -4.5 28 7.0 NW 7 9 4 5 1011.9 - 0.0
22/03:00am 14.1 10.8 -4.6 27 7.2 WNW 4 6 2 3 1012.2 1010.5 0.0
22/02:30am 14.7 12.1 -5.1 25 7.6 CALM 0 6 0 3 1012.3 - 0.0
22/02:00am 15.3 11.4 -4.6 25 7.8 WNW 7 9 4 5 1012.4 - 0.0
22/01:30am 16.0 11.7 -4.5 24 8.1 NW 9 11 5 6 1012.5 - 0.0
22/01:00am 16.4 12.1 -5.3 22 8.5 NNW 9 11 5 6 1012.6 - 0.0
22/12:30am 17.2 13.2 -5.9 20 9.0 NNW 7 9 4 5 1012.8 - 0.0
22/12:00am 18.3 14.9 -5.7 19 9.5 W 4 6 2 3 1012.8 1011.0 0.0
 
Date/Time
CST
Temp
°C
App
Temp
°C
Dew
Point
°C
Rel
Hum
%
Delta-T
°C
Wind Press
QNH
hPa
Press
MSL
hPa
Rain since
9am
mm
Dir  Spd
km/h
Gust
km/h
Spd
kts
Gust
kts
21/11:30pm 19.6 15.5 -6.9 16 10.3 N 7 9 4 5 1012.8 - 0.0
21/11:00pm 21.6 16.8 -6.1 15 11.2 N 11 13 6 7 1012.8 - 0.0
21/10:30pm 22.0 17.2 -5.8 15 11.4 NNE 11 13 6 7 1012.9 - 0.0
21/10:00pm 22.3 17.8 -6.5 14 11.6 N 9 11 5 6 1013.0 - 0.0
21/09:30pm 23.9 19.4 -7.2 12 12.6 NE 9 13 5 7 1013.0 - 0.0
21/09:00pm 24.6 20.0 -7.8 11 13.1 N 9 15 5 8 1012.6 1010.9 0.0
21/08:30pm 25.5 20.6 -7.1 11 13.4 NNE 11 13 6 7 1012.1 - 0.0
21/08:00pm 25.5 20.9 -8.3 10 13.6 NE 9 11 5 6 1011.7 - 0.0
21/07:30pm 27.6 23.0 -8.1 9 14.7 NE 9 11 5 6 1011.4 - 0.0
21/07:00pm 30.4 26.1 -9.2 7 16.4 NE 7 9 4 5 1011.0 - 0.0
21/06:30pm 33.5 29.2 -9.0 6 18.2 ENE 7 11 4 6 1010.7 - 0.0
21/06:00pm 35.0 29.5 -10.2 5 19.2 NE 13 19 7 10 1010.6 1008.8 0.0
21/05:30pm 35.9 31.7 -9.6 5 19.7 ENE 6 11 3 6 1010.5 - 0.0
21/05:00pm 36.1 30.6 -9.4 5 19.8 NE 13 22 7 12 1010.5 - 0.0
21/04:30pm 36.5 31.6 -12.0 4 20.3 N 9 13 5 7 1010.7 - 0.0
21/04:00pm 36.2 32.4 -9.4 5 19.8 SW 4 9 2 5 1010.8 - 0.0
21/03:30pm 36.4 30.6 -9.2 5 19.9 NNE 15 22 8 12 1011.1 - 0.0
21/03:00pm 37.1 31.7 -8.7 5 20.3 NNE 13 30 7 16 1011.4 1009.7 0.0
21/02:30pm 36.6 30.8 -9.1 5 20.0 NNE 15 30 8 16 1011.9 - 0.0
21/02:00pm 36.4 30.2 -9.2 5 19.9 NNE 17 35 9 19 1012.3 - 0.0
21/01:30pm 36.9 30.3 -8.9 5 20.2 ENE 19 22 10 12 1012.9 - 0.0
21/01:00pm 36.1 30.2 -9.4 5 19.8 ESE 15 28 8 15 1013.3 - 0.0
21/12:30pm 35.9 30.8 -9.6 5 19.7 NNE 11 24 6 13 1013.7 - 0.0
21/12:00pm 34.9 29.0 -10.3 5 19.2 NE 15 26 8 14 1014.3 1012.6 0.0
21/11:30am 35.2 28.9 -10.1 5 19.3 NE 17 32 9 17 1014.6 - 0.0
21/11:00am 34.8 27.7 -8.0 6 18.8 NNE 22 33 12 18 1015.0 - 0.0

Other Formats:

Comma delimited format used in spreadsheet applications
http://www.bom.gov.au/fwo/IDD60801/IDD60801.95322.axf

JavaScript Object Notation format (JSON) in row-major order
http://www.bom.gov.au/fwo/IDD60801/IDD60801.95322.json